Time;durP1;ratioP1;P1;durP2;ratioP2;P2;SDS_P1;SDS_P2;PMS_P1;PMS_P2;Temp;Humidity;BMP_temperature;BMP_pressure;BME280_temperature;BME280_humidity;BME280_pressure;Samples;Min_cycle;Max_cycle;Signal;HPM_P1;HPM_P2
2024/03/21 00:00:09;;;;;;;14.80;6.50;;;7.70;99.90;;;;;;5035279;28;20949;-68
2024/03/21 00:02:37;;;;;;;12.80;6.30;;;7.80;99.90;;;;;;5046269;28;20471;-69
2024/03/21 00:05:06;;;;;;;14.87;6.90;;;7.60;99.90;;;;;;5045074;28;20459;-70
2024/03/21 00:07:32;;;;;;;13.90;7.17;;;7.40;99.90;;;;;;5046504;28;20457;-69
2024/03/21 00:09:59;;;;;;;12.93;6.27;;;7.50;99.90;;;;;;5048538;28;20453;-68
2024/03/21 00:12:25;;;;;;;14.67;8.00;;;7.70;99.90;;;;;;5063788;28;20989;-69
2024/03/21 00:14:53;;;;;;;15.03;7.73;;;7.70;99.90;;;;;;5047735;28;20487;-69
2024/03/21 00:17:19;;;;;;;13.17;7.07;;;7.70;99.90;;;;;;5047586;28;20449;-70
2024/03/21 00:19:46;;;;;;;13.63;6.17;;;7.80;99.90;;;;;;5046977;28;20804;-69
2024/03/21 00:22:12;;;;;;;13.13;6.80;;;7.70;99.90;;;;;;5046495;28;20473;-69
2024/03/21 00:24:39;;;;;;;12.67;6.10;;;7.70;99.90;;;;;;5048073;28;20460;-69
2024/03/21 00:27:05;;;;;;;14.33;7.30;;;7.80;99.90;;;;;;5048213;28;20452;-69
2024/03/21 00:29:33;;;;;;;19.93;8.33;;;7.80;99.90;;;;;;5048182;28;20454;-68
2024/03/21 00:32:00;;;;;;;15.50;8.10;;;8.00;99.90;;;;;;5047114;28;21241;-69
2024/03/21 00:34:27;;;;;;;15.60;8.30;;;8.30;99.90;;;;;;5047522;28;20833;-69
2024/03/21 00:36:53;;;;;;;14.33;8.30;;;8.40;99.90;;;;;;5047287;28;20840;-69
2024/03/21 00:39:20;;;;;;;17.67;8.73;;;8.50;99.90;;;;;;5047090;28;20460;-69
2024/03/21 00:41:47;;;;;;;15.00;7.43;;;8.50;99.90;;;;;;5045444;28;20482;-69
2024/03/21 00:44:14;;;;;;;15.57;7.93;;;8.40;99.90;;;;;;5047297;28;20458;-69
2024/03/21 00:46:40;;;;;;;12.43;7.77;;;8.40;99.90;;;;;;5046781;28;20457;-69
2024/03/21 00:49:09;;;;;;;18.70;8.80;;;8.40;99.90;;;;;;5046722;28;20454;-70
2024/03/21 00:51:35;;;;;;;15.23;8.57;;;8.50;99.90;;;;;;5046467;28;20489;-69
2024/03/21 00:54:02;;;;;;;16.53;7.90;;;8.60;99.90;;;;;;5045966;28;20447;-69
2024/03/21 00:56:28;;;;;;;15.47;8.70;;;8.70;99.90;;;;;;5046657;28;20561;-68
2024/03/21 00:58:58;;;;;;;14.87;8.63;;;8.80;99.90;;;;;;5046673;28;20454;-69
2024/03/21 01:01:24;;;;;;;15.67;8.13;;;8.70;99.90;;;;;;5046864;28;20451;-69
2024/03/21 01:03:51;;;;;;;12.40;7.80;;;8.70;99.90;;;;;;5045752;28;20466;-69
2024/03/21 01:06:18;;;;;;;13.23;7.07;;;8.60;99.90;;;;;;5046498;28;20506;-70
2024/03/21 01:08:45;;;;;;;16.83;8.03;;;8.70;99.90;;;;;;5046399;28;21342;-68
2024/03/21 01:11:11;;;;;;;14.87;8.43;;;8.70;99.90;;;;;;5045461;28;21000;-68
2024/03/21 01:13:38;;;;;;;14.43;8.23;;;8.70;99.90;;;;;;5044590;28;20458;-65
2024/03/21 01:16:08;;;;;;;14.30;8.17;;;8.70;99.90;;;;;;5043791;28;20469;-67
2024/03/21 01:18:35;;;;;;;14.80;7.53;;;8.60;99.90;;;;;;5058781;28;20444;-67
2024/03/21 01:21:02;;;;;;;14.10;8.10;;;8.60;99.90;;;;;;5044376;28;20886;-69
2024/03/21 01:23:30;;;;;;;13.93;7.30;;;8.60;99.90;;;;;;5044340;28;20997;-69
2024/03/21 01:25:56;;;;;;;14.70;7.10;;;8.50;99.90;;;;;;5045726;28;20816;-68
2024/03/21 01:28:23;;;;;;;14.07;7.77;;;8.50;99.90;;;;;;5046171;28;20456;-67
2024/03/21 01:30:49;;;;;;;15.77;7.80;;;8.60;99.90;;;;;;5046032;28;20465;-68
2024/03/21 01:33:16;;;;;;;14.10;6.93;;;8.70;99.90;;;;;;5044864;28;20474;-68
2024/03/21 01:35:42;;;;;;;14.60;7.33;;;8.70;99.90;;;;;;5039942;28;20874;-68
2024/03/21 01:38:09;;;;;;;15.47;6.90;;;8.70;99.90;;;;;;5046076;28;20451;-69
2024/03/21 01:40:38;;;;;;;13.93;7.20;;;8.80;99.90;;;;;;5045950;28;20462;-69
2024/03/21 01:43:20;;;;;;;13.53;7.30;;;8.80;99.90;;;;;;5044117;28;20473;-68
2024/03/21 01:46:05;;;;;;;16.70;7.60;;;8.80;99.90;;;;;;5044999;28;20449;-68
2024/03/21 01:48:33;;;;;;;12.37;7.03;;;8.80;99.90;;;;;;5046937;28;20468;-68
2024/03/21 01:50:59;;;;;;;12.43;8.10;;;8.80;99.90;;;;;;5045925;28;20539;-68
2024/03/21 01:53:28;;;;;;;12.60;6.80;;;8.90;99.90;;;;;;5045437;28;20502;-68
2024/03/21 01:55:56;;;;;;;15.17;7.83;;;8.90;99.90;;;;;;5046541;28;20482;-69
2024/03/21 01:58:23;;;;;;;13.20;7.77;;;9.00;99.90;;;;;;5046829;28;20458;-68
2024/03/21 02:00:49;;;;;;;11.53;7.20;;;9.00;99.90;;;;;;5045808;28;20463;-69
2024/03/21 02:03:16;;;;;;;14.20;7.87;;;9.10;99.90;;;;;;5045285;28;20476;-68
2024/03/21 02:05:42;;;;;;;12.57;8.00;;;9.10;99.90;;;;;;5045809;28;20455;-67
2024/03/21 02:08:09;;;;;;;13.07;7.20;;;9.10;99.90;;;;;;5045790;28;20455;-68
2024/03/21 02:10:36;;;;;;;12.37;6.90;;;9.10;99.90;;;;;;5045095;28;20455;-69
2024/03/21 02:13:05;;;;;;;12.80;7.43;;;9.10;99.90;;;;;;5043686;28;20487;-69
2024/03/21 02:15:32;;;;;;;14.03;7.13;;;9.00;99.90;;;;;;5045030;28;20486;-68
2024/03/21 02:17:59;;;;;;;13.87;7.83;;;9.00;99.90;;;;;;5043880;28;20475;-69
2024/03/21 02:20:25;;;;;;;13.13;6.73;;;8.90;99.90;;;;;;5045231;28;20463;-68
2024/03/21 02:22:53;;;;;;;12.83;7.17;;;8.80;99.90;;;;;;5043411;28;20475;-68
2024/03/21 02:25:20;;;;;;;12.90;7.10;;;8.80;99.90;;;;;;5044742;28;20880;-69
2024/03/21 02:27:47;;;;;;;12.60;6.20;;;9.00;99.90;;;;;;5044983;28;20482;-69
2024/03/21 02:30:13;;;;;;;13.40;7.43;;;9.00;99.90;;;;;;5044847;28;20462;-68
2024/03/21 02:32:40;;;;;;;16.63;7.80;;;9.00;99.90;;;;;;5043045;28;21224;-68
2024/03/21 02:35:08;;;;;;;14.90;7.87;;;8.90;99.90;;;;;;5043604;28;20448;-69
2024/03/21 02:37:35;;;;;;;13.10;7.30;;;8.70;99.90;;;;;;5044806;28;20884;-68
2024/03/21 02:40:03;;;;;;;13.17;6.77;;;8.60;99.90;;;;;;5039286;28;20477;-69
2024/03/21 02:42:31;;;;;;;13.67;7.60;;;8.60;99.90;;;;;;5043684;28;20475;-69
2024/03/21 02:44:57;;;;;;;15.17;7.70;;;8.60;99.90;;;;;;5044836;28;20565;-69
2024/03/21 02:47:24;;;;;;;11.80;7.20;;;8.60;99.90;;;;;;5044416;28;20988;-68
2024/03/21 02:49:51;;;;;;;11.73;6.30;;;8.90;99.90;;;;;;5044317;28;20487;-69
2024/03/21 02:52:18;;;;;;;12.57;6.73;;;8.80;99.90;;;;;;5043349;28;20479;-69
2024/03/21 02:54:44;;;;;;;12.40;6.77;;;8.70;99.90;;;;;;5044184;28;21209;-69
2024/03/21 02:57:13;;;;;;;13.00;6.90;;;8.60;99.90;;;;;;5037609;28;20476;-68
2024/03/21 02:59:39;;;;;;;13.20;7.00;;;8.60;99.90;;;;;;5044402;28;20486;-68
2024/03/21 03:02:06;;;;;;;13.93;6.93;;;8.90;99.90;;;;;;5043798;28;20479;-69
2024/03/21 03:04:32;;;;;;;13.30;6.60;;;8.90;99.90;;;;;;5044385;28;20827;-70
2024/03/21 03:06:59;;;;;;;12.63;7.10;;;9.10;99.90;;;;;;5043283;28;20466;-68
2024/03/21 03:09:25;;;;;;;14.90;7.67;;;9.10;99.90;;;;;;5045355;28;20486;-68
2024/03/21 03:11:52;;;;;;;12.17;6.40;;;8.90;99.90;;;;;;5044712;28;20993;-69
2024/03/21 03:14:20;;;;;;;13.33;8.03;;;9.00;99.90;;;;;;5044588;28;20451;-69
2024/03/21 03:16:47;;;;;;;13.17;6.93;;;9.00;99.90;;;;;;5044548;28;20484;-69
2024/03/21 03:19:13;;;;;;;12.50;6.80;;;8.90;99.90;;;;;;5044415;28;20981;-68
2024/03/21 03:21:40;;;;;;;12.67;6.47;;;8.90;99.90;;;;;;5043763;28;20475;-69
2024/03/21 03:24:06;;;;;;;11.30;6.87;;;8.90;99.90;;;;;;5043686;28;20440;-69
2024/03/21 03:26:33;;;;;;;12.47;7.10;;;8.90;99.90;;;;;;5044723;28;20544;-69
2024/03/21 03:28:59;;;;;;;14.87;6.67;;;8.90;99.90;;;;;;5044780;28;21163;-69
2024/03/21 03:31:27;;;;;;;11.50;6.17;;;9.00;99.90;;;;;;5044445;28;20458;-69
2024/03/21 03:36:39;;;;;;;15.83;6.20;;;8.90;99.90;;;;;;5044255;28;20492;-69
2024/03/21 03:39:06;;;;;;;12.73;6.70;;;8.90;99.90;;;;;;5044350;28;20472;-70
2024/03/21 03:41:33;;;;;;;10.27;5.77;;;8.80;99.90;;;;;;5038265;28;21047;-67
2024/03/21 03:44:00;;;;;;;11.00;6.30;;;9.00;99.90;;;;;;5043799;28;20465;-69
2024/03/21 03:46:29;;;;;;;12.43;5.93;;;9.10;99.90;;;;;;5048242;28;20459;-68
2024/03/21 03:48:56;;;;;;;12.03;6.60;;;8.90;99.90;;;;;;5048190;28;20463;-70
2024/03/21 03:51:22;;;;;;;13.27;7.03;;;8.70;99.90;;;;;;5047220;28;21092;-68
2024/03/21 03:53:51;;;;;;;11.77;6.20;;;8.60;99.90;;;;;;5041846;28;20475;-68
2024/03/21 03:56:17;;;;;;;11.90;6.90;;;8.50;99.90;;;;;;5047021;28;20856;-69
2024/03/21 03:58:44;;;;;;;13.97;6.63;;;8.50;99.90;;;;;;5047463;28;20479;-68
2024/03/21 04:01:10;;;;;;;13.73;6.77;;;8.40;99.90;;;;;;5047265;28;20475;-68
2024/03/21 04:03:39;;;;;;;13.00;7.70;;;8.30;99.90;;;;;;5046482;28;20528;-68
2024/03/21 04:06:05;;;;;;;11.90;6.57;;;8.20;99.90;;;;;;5047364;28;20506;-69
2024/03/21 04:08:32;;;;;;;13.73;6.97;;;8.10;99.90;;;;;;5047508;28;20851;-68
2024/03/21 04:10:59;;;;;;;13.47;6.70;;;8.10;99.90;;;;;;5040955;28;20479;-68
2024/03/21 04:13:26;;;;;;;11.10;6.40;;;8.30;99.90;;;;;;5044157;28;20469;-68
2024/03/21 04:15:53;;;;;;;12.27;5.30;;;8.20;99.90;;;;;;5048435;28;20482;-68
2024/03/21 04:18:20;;;;;;;12.37;7.37;;;8.20;99.90;;;;;;5049006;28;20907;-68
2024/03/21 04:20:50;;;;;;;11.50;6.10;;;8.00;99.90;;;;;;5048947;28;20789;-68
2024/03/21 04:23:17;;;;;;;15.40;7.47;;;8.00;99.90;;;;;;5047612;28;20471;-68
2024/03/21 04:25:43;;;;;;;12.33;6.30;;;8.00;99.90;;;;;;5048790;28;20460;-67
2024/03/21 04:28:10;;;;;;;12.30;6.73;;;8.10;99.90;;;;;;5049170;28;20443;-67
2024/03/21 04:30:36;;;;;;;11.70;6.03;;;8.20;99.90;;;;;;5047885;28;21027;-68
2024/03/21 04:33:03;;;;;;;15.60;6.77;;;8.30;99.90;;;;;;5047664;28;20498;-69
2024/03/21 04:35:30;;;;;;;12.70;5.63;;;8.50;99.90;;;;;;5048853;28;20489;-69
2024/03/21 04:37:59;;;;;;;13.30;6.43;;;8.50;99.90;;;;;;5048169;28;20494;-68
2024/03/21 04:40:25;;;;;;;11.27;5.33;;;8.30;99.90;;;;;;5047974;28;20478;-67
2024/03/21 04:42:52;;;;;;;16.73;6.90;;;8.30;99.90;;;;;;5046829;28;20478;-67
2024/03/21 04:45:22;;;;;;;12.27;6.73;;;8.20;99.90;;;;;;5048125;28;20465;-68
2024/03/21 04:47:50;;;;;;;12.50;6.90;;;8.30;99.90;;;;;;5039768;28;20460;-67
2024/03/21 04:50:17;;;;;;;11.57;6.50;;;8.40;99.90;;;;;;5047502;28;20487;-67
2024/03/21 04:52:44;;;;;;;15.60;6.40;;;8.30;99.90;;;;;;5045064;28;20834;-67
2024/03/21 04:55:13;;;;;;;13.73;6.90;;;8.40;99.90;;;;;;5046029;28;20483;-67
2024/03/21 04:57:39;;;;;;;13.53;6.60;;;8.40;99.90;;;;;;5046564;28;20863;-69
2024/03/21 05:00:10;;;;;;;12.30;6.60;;;8.30;99.90;;;;;;5046886;28;21588;-70
2024/03/21 05:02:36;;;;;;;13.13;7.37;;;8.20;99.90;;;;;;5045076;28;21187;-70
2024/03/21 05:05:04;;;;;;;12.50;7.10;;;8.20;99.90;;;;;;5045968;28;20467;-68
2024/03/21 05:07:30;;;;;;;11.03;5.90;;;8.30;99.90;;;;;;5046639;28;20479;-68
2024/03/21 05:09:57;;;;;;;11.30;5.70;;;8.10;99.90;;;;;;5046453;28;21151;-69
2024/03/21 05:12:25;;;;;;;13.30;7.03;;;8.10;99.90;;;;;;5045135;28;20490;-68
2024/03/21 05:14:52;;;;;;;10.70;5.80;;;7.90;99.90;;;;;;5046531;28;20879;-69
2024/03/21 05:17:20;;;;;;;11.90;7.00;;;7.90;99.90;;;;;;5046551;28;20483;-68
2024/03/21 05:19:47;;;;;;;11.93;6.63;;;7.90;99.90;;;;;;5045135;28;20469;-69
2024/03/21 05:22:13;;;;;;;12.40;6.60;;;7.80;99.90;;;;;;5046076;28;20470;-69
2024/03/21 05:24:40;;;;;;;12.70;7.60;;;7.90;99.90;;;;;;5041752;28;20844;-68
2024/03/21 05:27:06;;;;;;;15.80;8.97;;;7.90;99.90;;;;;;5051259;28;20451;-68
2024/03/21 05:29:36;;;;;;;13.17;7.30;;;8.00;99.90;;;;;;5058129;28;20474;-67
2024/03/21 05:32:03;;;;;;;15.77;9.43;;;8.00;99.90;;;;;;5053375;28;20478;-68
2024/03/21 05:34:30;;;;;;;17.70;7.67;;;8.10;99.90;;;;;;5059764;28;21007;-68
2024/03/21 05:36:56;;;;;;;12.67;6.90;;;8.30;99.90;;;;;;5061109;28;20478;-68
2024/03/21 05:39:23;;;;;;;11.40;6.10;;;8.30;99.90;;;;;;5053356;28;20515;-68
2024/03/21 05:41:49;;;;;;;12.90;6.80;;;8.40;99.90;;;;;;5059388;28;20593;-68
2024/03/21 05:44:16;;;;;;;12.30;7.43;;;8.30;99.90;;;;;;5055004;28;20482;-70
2024/03/21 05:46:43;;;;;;;13.27;6.50;;;8.40;99.90;;;;;;5050778;28;20455;-68
2024/03/21 05:49:12;;;;;;;11.40;6.10;;;8.50;99.90;;;;;;5048174;28;21580;-68
2024/03/21 05:51:39;;;;;;;13.40;6.40;;;8.50;99.90;;;;;;5069847;28;20478;-68
2024/03/21 05:54:07;;;;;;;12.80;5.63;;;8.60;99.90;;;;;;5056523;28;20492;-68
2024/03/21 05:56:36;;;;;;;11.03;5.93;;;8.50;99.90;;;;;;5057127;28;20546;-69
2024/03/21 05:59:04;;;;;;;11.70;6.23;;;8.50;99.90;;;;;;5053634;28;20442;-68
2024/03/21 06:01:32;;;;;;;12.30;5.70;;;8.50;99.90;;;;;;5060405;28;20466;-71
2024/03/21 06:04:01;;;;;;;11.67;5.30;;;8.70;99.90;;;;;;5060647;28;20448;-69
2024/03/21 06:06:28;;;;;;;13.63;6.00;;;8.80;99.90;;;;;;5078055;28;20506;-70
2024/03/21 06:08:56;;;;;;;11.37;6.30;;;8.80;99.90;;;;;;5061284;28;20451;-67
2024/03/21 06:11:22;;;;;;;9.47;4.80;;;8.80;99.90;;;;;;5061833;28;20459;-68
2024/03/21 06:13:50;;;;;;;11.23;6.00;;;8.90;99.90;;;;;;5061091;28;20451;-68
2024/03/21 06:16:16;;;;;;;14.77;6.33;;;8.90;99.90;;;;;;5060521;28;20455;-68
2024/03/21 06:18:43;;;;;;;11.73;5.40;;;9.20;99.90;;;;;;5061933;28;20914;-68
2024/03/21 06:21:11;;;;;;;11.07;5.00;;;9.30;99.90;;;;;;5059892;28;20452;-67
2024/03/21 06:23:38;;;;;;;12.10;5.00;;;9.40;99.90;;;;;;5060259;28;21046;-69
2024/03/21 06:26:04;;;;;;;15.03;5.07;;;9.40;99.90;;;;;;5060937;28;20447;-70
2024/03/21 06:28:31;;;;;;;11.70;5.70;;;9.50;99.90;;;;;;5049898;28;20448;-72
2024/03/21 06:30:57;;;;;;;11.50;5.60;;;9.60;99.90;;;;;;5054664;28;20448;-69
2024/03/21 06:33:24;;;;;;;9.70;5.00;;;9.70;99.90;;;;;;5051005;28;20466;-69
2024/03/21 06:35:50;;;;;;;13.40;4.90;;;9.70;99.90;;;;;;5055506;28;20448;-69
2024/03/21 06:38:18;;;;;;;10.63;5.10;;;9.80;99.90;;;;;;5055065;28;20472;-69
2024/03/21 06:40:44;;;;;;;10.57;4.87;;;9.80;99.90;;;;;;5057887;28;20441;-69
2024/03/21 06:43:11;;;;;;;12.57;5.87;;;9.90;99.90;;;;;;5050594;28;20979;-69
2024/03/21 06:45:38;;;;;;;11.13;5.40;;;10.00;99.90;;;;;;5055380;28;20478;-68
2024/03/21 06:48:05;;;;;;;12.20;5.33;;;10.20;99.90;;;;;;5045533;28;20448;-68
2024/03/21 06:50:32;;;;;;;13.10;5.17;;;10.40;99.90;;;;;;5055575;28;20463;-68
2024/03/21 06:53:00;;;;;;;10.47;4.83;;;10.40;99.90;;;;;;5055407;28;20480;-68
2024/03/21 06:55:28;;;;;;;10.37;4.73;;;10.50;99.90;;;;;;5052073;28;20439;-69
2024/03/21 06:57:56;;;;;;;14.20;5.80;;;10.50;99.90;;;;;;5056162;28;20488;-69
2024/03/21 07:00:26;;;;;;;9.60;5.00;;;10.40;99.90;;;;;;5056058;28;20441;-71
2024/03/21 07:02:52;;;;;;;14.13;6.27;;;10.60;99.90;;;;;;5075338;28;20497;-72
2024/03/21 07:05:19;;;;;;;11.17;5.60;;;10.60;99.90;;;;;;5058729;28;20440;-71
2024/03/21 07:07:45;;;;;;;13.10;5.80;;;10.60;99.90;;;;;;5060584;28;20445;-69
2024/03/21 07:10:12;;;;;;;11.70;4.90;;;10.50;99.90;;;;;;5058811;28;20539;-69
2024/03/21 07:12:40;;;;;;;11.67;5.80;;;10.70;99.90;;;;;;5056556;28;20472;-70
2024/03/21 07:15:08;;;;;;;11.33;5.20;;;10.70;99.90;;;;;;5056564;28;20450;-70
2024/03/21 07:17:35;;;;;;;11.53;5.30;;;10.70;99.90;;;;;;5058808;28;20518;-70
2024/03/21 07:20:03;;;;;;;15.00;5.63;;;10.70;99.90;;;;;;5058689;28;20466;-72
2024/03/21 07:22:29;;;;;;;11.40;5.50;;;10.70;99.90;;;;;;5058875;28;20462;-69
2024/03/21 07:24:56;;;;;;;10.90;5.03;;;10.80;99.90;;;;;;5063902;28;20450;-69
2024/03/21 07:27:22;;;;;;;12.67;5.37;;;10.80;99.90;;;;;;5047015;28;21089;-69
2024/03/21 07:29:51;;;;;;;13.60;5.80;;;11.00;99.90;;;;;;5052709;28;20798;-69
2024/03/21 07:32:17;;;;;;;11.00;5.47;;;11.00;99.90;;;;;;5045903;28;21257;-69
2024/03/21 07:34:44;;;;;;;12.20;4.80;;;11.10;99.90;;;;;;5049594;28;20932;-69
2024/03/21 07:37:10;;;;;;;12.03;5.37;;;11.30;99.90;;;;;;5049824;28;20632;-69
2024/03/21 07:39:37;;;;;;;10.00;4.50;;;11.40;99.90;;;;;;5049454;28;21208;-68
2024/03/21 07:42:03;;;;;;;12.53;5.30;;;11.70;99.90;;;;;;5040334;28;21031;-68
2024/03/21 07:44:31;;;;;;;13.30;5.80;;;12.00;99.90;;;;;;5047927;28;20456;-69
2024/03/21 07:46:58;;;;;;;14.63;6.50;;;12.20;99.90;;;;;;5048657;28;20960;-69
2024/03/21 07:49:25;;;;;;;11.47;5.60;;;12.40;99.90;;;;;;5048863;28;20814;-68
2024/03/21 07:51:52;;;;;;;12.80;5.20;;;12.50;99.90;;;;;;5042085;28;20988;-76
2024/03/21 07:54:19;;;;;;;12.77;6.10;;;12.70;99.90;;;;;;5048220;28;20451;-69
2024/03/21 07:56:45;;;;;;;9.77;5.10;;;12.70;99.90;;;;;;5049330;28;20460;-68
2024/03/21 07:59:12;;;;;;;9.50;5.57;;;12.80;99.90;;;;;;5049468;28;20897;-69
2024/03/21 08:01:38;;;;;;;11.27;5.83;;;12.90;99.90;;;;;;5047101;28;20834;-69
2024/03/21 08:04:08;;;;;;;12.70;5.87;;;13.10;99.90;;;;;;5046603;28;20804;-69
2024/03/21 08:06:34;;;;;;;11.60;4.77;;;13.30;99.90;;;;;;5044976;28;20445;-69
2024/03/21 08:09:02;;;;;;;11.70;4.80;;;13.60;99.90;;;;;;5047429;28;20455;-69
2024/03/21 08:11:29;;;;;;;12.40;4.77;;;13.70;99.90;;;;;;5047722;28;20460;-69
2024/03/21 08:13:55;;;;;;;12.27;5.60;;;13.80;99.90;;;;;;5047389;28;20454;-69
2024/03/21 08:16:22;;;;;;;12.47;5.70;;;13.70;99.90;;;;;;5048413;28;20459;-69
2024/03/21 08:18:48;;;;;;;10.67;5.90;;;13.90;99.90;;;;;;5048131;28;20897;-69
2024/03/21 08:21:18;;;;;;;11.93;5.77;;;13.80;99.90;;;;;;5047856;28;20942;-69
2024/03/21 08:23:44;;;;;;;12.23;6.53;;;13.80;99.90;;;;;;5046676;28;20452;-69
2024/03/21 08:26:11;;;;;;;11.03;6.03;;;14.00;99.90;;;;;;5048151;28;20457;-69
2024/03/21 08:28:37;;;;;;;11.00;6.00;;;14.30;99.90;;;;;;5047170;28;20464;-68
2024/03/21 08:31:04;;;;;;;11.27;6.70;;;14.40;99.90;;;;;;5048313;28;20456;-69
2024/03/21 08:33:30;;;;;;;16.20;7.20;;;14.60;99.90;;;;;;5048023;28;21020;-69
2024/03/21 08:35:57;;;;;;;10.87;6.40;;;14.60;99.90;;;;;;5048774;28;20486;-69
2024/03/21 08:38:25;;;;;;;12.90;6.47;;;14.50;99.90;;;;;;5048095;28;20548;-69
2024/03/21 08:40:52;;;;;;;11.23;6.07;;;14.50;99.90;;;;;;5047719;28;20436;-69
2024/03/21 08:43:19;;;;;;;12.23;6.70;;;14.50;99.90;;;;;;5047004;28;20475;-69
2024/03/21 08:45:46;;;;;;;16.63;5.97;;;14.50;99.90;;;;;;5047949;28;20467;-69
2024/03/21 08:48:13;;;;;;;17.93;6.77;;;14.50;99.90;;;;;;5048019;28;20450;-69
2024/03/21 08:50:41;;;;;;;13.80;6.90;;;14.50;99.90;;;;;;5047890;28;20833;-68
2024/03/21 08:53:08;;;;;;;11.93;6.63;;;14.60;99.90;;;;;;5046343;28;20475;-69
2024/03/21 08:55:36;;;;;;;15.23;7.17;;;14.70;99.90;;;;;;5047394;28;20466;-69
2024/03/21 08:58:03;;;;;;;12.47;6.70;;;14.80;99.90;;;;;;5047012;28;20481;-69
2024/03/21 09:00:31;;;;;;;12.00;7.20;;;14.70;99.90;;;;;;5047454;28;20445;-69
2024/03/21 09:02:59;;;;;;;12.40;7.53;;;14.80;99.90;;;;;;5044903;28;20439;-70
2024/03/21 09:05:25;;;;;;;11.83;7.60;;;14.90;99.90;;;;;;5048134;28;20224;-70
2024/03/21 09:07:51;;;;;;;11.87;6.33;;;15.10;99.90;;;;;;5048709;28;20460;-67
2024/03/21 09:10:17;;;;;;;16.23;7.80;;;15.20;99.90;;;;;;5048451;28;20459;-67
2024/03/21 09:12:46;;;;;;;12.93;8.03;;;15.50;99.90;;;;;;5046359;28;20483;-70
2024/03/21 09:15:13;;;;;;;18.50;8.37;;;15.60;99.90;;;;;;5048232;28;20452;-67
2024/03/21 09:17:40;;;;;;;13.33;7.60;;;16.10;99.90;;;;;;5048347;28;20484;-69
2024/03/21 09:20:07;;;;;;;17.07;8.90;;;16.30;99.90;;;;;;5048214;28;20452;-67
2024/03/21 09:22:34;;;;;;;17.60;7.40;;;16.30;99.90;;;;;;5046518;28;20487;-67
2024/03/21 09:25:00;;;;;;;11.33;6.63;;;16.40;99.90;;;;;;5048303;28;20447;-68
2024/03/21 09:27:27;;;;;;;14.57;7.77;;;16.60;99.90;;;;;;5048095;28;20460;-67
2024/03/21 09:29:55;;;;;;;13.27;7.37;;;17.00;99.90;;;;;;5047669;28;20451;-68
2024/03/21 09:32:22;;;;;;;13.60;7.67;;;17.30;99.90;;;;;;5046634;28;20484;-68
2024/03/21 09:34:49;;;;;;;12.60;7.03;;;17.30;99.90;;;;;;5047591;28;20946;-67
2024/03/21 09:37:17;;;;;;;11.83;6.93;;;17.50;99.90;;;;;;5047797;28;20830;-68
2024/03/21 09:39:44;;;;;;;14.50;7.80;;;18.20;99.90;;;;;;5047962;28;20451;-67
2024/03/21 09:42:16;;;;;;;11.20;6.50;;;18.30;99.90;;;;;;5045993;28;20487;-68
2024/03/21 09:44:46;;;;;;;13.67;5.77;;;18.10;99.90;;;;;;5047991;28;20452;-70
2024/03/21 09:47:19;;;;;;;11.47;5.27;;;17.40;99.90;;;;;;5045812;28;20457;-69
2024/03/21 09:49:46;;;;;;;13.60;6.43;;;16.60;99.90;;;;;;5047407;28;20518;-69
2024/03/21 09:52:13;;;;;;;10.50;5.17;;;16.30;99.90;;;;;;5046055;28;20538;-69
2024/03/21 09:54:39;;;;;;;13.63;6.27;;;16.20;99.90;;;;;;5047688;28;20824;-69
2024/03/21 09:57:09;;;;;;;10.03;5.73;;;16.20;99.90;;;;;;5047600;28;20532;-70
2024/03/21 09:59:35;;;;;;;11.70;6.87;;;16.30;99.90;;;;;;5047845;28;20499;-70
2024/03/21 10:02:02;;;;;;;13.63;6.80;;;16.20;99.90;;;;;;5046763;28;20497;-70
2024/03/21 10:04:40;;;;;;;14.63;8.37;;;15.90;99.90;;;;;;5046500;28;20447;-70
2024/03/21 10:07:17;;;;;;;15.10;7.70;;;15.60;99.90;;;;;;5047471;28;20992;-69
2024/03/21 10:09:51;;;;;;;15.47;8.37;;;15.50;99.90;;;;;;5046959;28;20451;-70
2024/03/21 10:12:18;;;;;;;14.53;7.97;;;15.60;99.90;;;;;;5046192;28;20896;-69
2024/03/21 10:14:44;;;;;;;13.87;8.03;;;15.50;99.90;;;;;;5047488;28;20498;-70
2024/03/21 10:17:11;;;;;;;15.33;7.63;;;15.50;99.90;;;;;;5047241;28;20470;-69
2024/03/21 10:19:39;;;;;;;12.17;7.43;;;15.70;99.90;;;;;;5046830;28;20461;-70
2024/03/21 10:22:06;;;;;;;15.13;6.90;;;15.60;99.90;;;;;;5046888;28;20484;-70
2024/03/21 10:24:32;;;;;;;13.13;7.50;;;15.50;99.90;;;;;;5046707;28;20509;-70
2024/03/21 10:26:59;;;;;;;17.40;8.50;;;15.50;99.90;;;;;;5047030;28;20515;-69
2024/03/21 10:29:26;;;;;;;16.13;9.90;;;15.90;99.90;;;;;;5046963;28;20458;-70
2024/03/21 10:31:53;;;;;;;15.03;10.30;;;16.60;99.90;;;;;;5045262;28;20483;-70
2024/03/21 10:34:23;;;;;;;15.77;9.97;;;17.00;99.90;;;;;;5045280;28;20874;-69
2024/03/21 10:36:51;;;;;;;15.47;8.47;;;17.20;99.90;;;;;;5045396;28;21004;-70
2024/03/21 10:39:17;;;;;;;12.60;7.33;;;17.10;99.90;;;;;;5045671;28;20598;-70
2024/03/21 10:41:45;;;;;;;15.97;8.80;;;17.10;99.90;;;;;;5045244;28;20481;-70
2024/03/21 10:44:14;;;;;;;13.50;7.67;;;17.20;99.90;;;;;;5045520;28;20972;-69
2024/03/21 10:46:41;;;;;;;18.07;7.43;;;17.40;99.90;;;;;;5046407;28;20512;-69
2024/03/21 10:49:14;;;;;;;13.30;6.73;;;17.90;99.90;;;;;;5045270;28;21047;-69
2024/03/21 10:51:42;;;;;;;11.63;6.77;;;17.90;99.90;;;;;;5045030;28;20550;-68
2024/03/21 10:54:13;;;;;;;15.33;7.30;;;17.90;99.90;;;;;;5044613;28;20566;-69
2024/03/21 10:56:41;;;;;;;12.67;7.23;;;18.10;99.90;;;;;;5045864;28;20490;-68
2024/03/21 10:59:14;;;;;;;12.03;7.33;;;18.40;99.90;;;;;;5042871;28;20941;-68
2024/03/21 11:01:43;;;;;;;13.20;7.30;;;18.20;99.90;;;;;;5040443;28;20475;-69
2024/03/21 11:04:10;;;;;;;10.03;6.30;;;18.10;99.90;;;;;;5046241;28;20459;-68
2024/03/21 11:06:38;;;;;;;11.03;6.40;;;18.30;99.90;;;;;;5043556;28;20463;-69
2024/03/21 11:09:05;;;;;;;11.93;6.47;;;18.60;99.80;;;;;;5046135;28;20870;-68
2024/03/21 11:11:34;;;;;;;12.90;6.57;;;18.60;99.90;;;;;;5045413;28;20448;-69
2024/03/21 11:14:01;;;;;;;13.40;7.67;;;17.80;99.80;;;;;;5044915;28;20825;-68
2024/03/21 11:16:28;;;;;;;17.80;7.87;;;17.90;99.80;;;;;;5046287;28;20448;-69
2024/03/21 11:18:55;;;;;;;15.10;8.40;;;17.70;99.40;;;;;;5046071;28;20494;-67
2024/03/21 11:21:23;;;;;;;13.43;7.50;;;17.20;99.90;;;;;;5046143;28;20459;-68
2024/03/21 11:23:49;;;;;;;14.93;9.20;;;17.80;99.90;;;;;;5044718;28;20448;-68
2024/03/21 11:26:18;;;;;;;16.03;10.10;;;18.20;99.50;;;;;;5045170;28;20459;-68
2024/03/21 11:28:47;;;;;;;15.63;8.93;;;18.50;98.20;;;;;;5044868;28;21115;-69
2024/03/21 11:31:21;;;;;;;14.90;10.50;;;18.90;99.20;;;;;;5045152;28;20452;-67
2024/03/21 11:33:48;;;;;;;19.00;13.60;;;19.30;97.80;;;;;;5044355;28;20455;-68
2024/03/21 11:36:16;;;;;;;18.97;12.37;;;19.40;96.50;;;;;;5045059;28;20456;-68
2024/03/21 11:38:43;;;;;;;18.70;11.93;;;19.30;95.50;;;;;;5044898;28;20484;-70
2024/03/21 11:41:18;;;;;;;18.13;12.60;;;18.90;95.80;;;;;;5044967;28;20888;-69
2024/03/21 11:43:48;;;;;;;17.63;12.20;;;19.20;95.50;;;;;;5043926;28;20444;-68
2024/03/21 11:46:16;;;;;;;18.83;12.70;;;19.30;94.70;;;;;;5045370;28;20456;-68
2024/03/21 11:48:42;;;;;;;17.67;11.43;;;19.30;94.50;;;;;;5045028;28;20459;-69
2024/03/21 11:51:15;;;;;;;16.70;11.20;;;19.30;94.30;;;;;;5045019;28;20460;-68
2024/03/21 11:53:41;;;;;;;19.63;13.30;;;19.20;94.30;;;;;;5044663;28;20471;-69
2024/03/21 11:56:08;;;;;;;15.60;11.87;;;19.80;93.70;;;;;;5044975;28;20455;-69
2024/03/21 11:58:34;;;;;;;16.83;13.67;;;20.00;92.90;;;;;;5045263;28;20488;-68
2024/03/21 12:01:02;;;;;;;17.73;12.93;;;19.90;91.60;;;;;;5044540;28;20448;-69
2024/03/21 12:03:28;;;;;;;16.33;10.80;;;20.10;92.20;;;;;;5044225;28;20472;-69
2024/03/21 12:05:55;;;;;;;17.63;11.90;;;20.80;92.40;;;;;;5046908;28;20443;-68
2024/03/21 12:08:22;;;;;;;15.97;11.17;;;20.90;89.80;;;;;;5048553;28;20463;-69
2024/03/21 12:10:49;;;;;;;16.83;14.03;;;21.00;90.00;;;;;;5048518;28;20448;-68
2024/03/21 12:13:15;;;;;;;17.77;11.87;;;20.20;89.10;;;;;;5047258;28;20541;-69
2024/03/21 12:15:42;;;;;;;18.07;13.00;;;19.30;90.60;;;;;;5048535;28;21023;-69
2024/03/21 12:18:09;;;;;;;19.90;16.17;;;18.70;91.10;;;;;;5047683;28;20487;-70
2024/03/21 12:20:36;;;;;;;19.30;14.30;;;18.10;92.10;;;;;;5048448;28;20462;-69
2024/03/21 12:23:03;;;;;;;19.40;15.07;;;18.30;93.40;;;;;;5043617;28;20647;-69
2024/03/21 12:25:30;;;;;;;19.40;15.87;;;18.40;93.20;;;;;;5047726;28;20495;-70
2024/03/21 12:27:56;;;;;;;19.00;15.30;;;18.50;92.70;;;;;;5048133;28;20520;-71
2024/03/21 12:30:23;;;;;;;23.70;16.23;;;18.50;92.90;;;;;;5049178;28;20448;-71
2024/03/21 12:32:49;;;;;;;20.43;16.80;;;18.40;92.70;;;;;;5047564;28;20476;-69
2024/03/21 12:35:18;;;;;;;25.40;17.73;;;17.80;92.70;;;;;;5048411;28;20453;-70
2024/03/21 12:37:46;;;;;;;21.17;16.80;;;17.40;93.70;;;;;;5048517;28;20452;-70
2024/03/21 12:40:14;;;;;;;20.30;15.47;;;18.20;93.70;;;;;;5048367;28;20510;-70
2024/03/21 12:42:40;;;;;;;21.20;16.17;;;19.00;92.70;;;;;;5047263;28;20484;-70